Time;durP1;ratioP1;P1;durP2;ratioP2;P2;SDS_P1;SDS_P2;PMS_P1;PMS_P2;Temp;Humidity;BMP_temperature;BMP_pressure;BME280_temperature;BME280_humidity;BME280_pressure;Samples;Min_cycle;Max_cycle;Signal;HPM_P1;HPM_P2
2022/07/02 00:00:20;;;;;;;4.07;2.38;;;15.10;99.90;;;;;;5041568;28;20081;-64
2022/07/02 00:02:51;;;;;;;4.57;2.70;;;15.10;99.90;;;;;;5042349;28;20093;-65
2022/07/02 00:05:25;;;;;;;5.10;2.65;;;15.10;99.90;;;;;;5041806;28;20083;-65
2022/07/02 00:07:54;;;;;;;5.03;2.63;;;15.10;99.90;;;;;;5043613;28;20049;-64
2022/07/02 00:10:20;;;;;;;5.10;2.90;;;15.10;99.90;;;;;;5046365;28;20045;-64
2022/07/02 00:12:47;;;;;;;7.78;3.20;;;15.20;99.90;;;;;;5047374;28;20045;-64
2022/07/02 00:15:13;;;;;;;6.65;2.65;;;15.00;99.90;;;;;;5048325;28;20497;-64
2022/07/02 00:17:39;;;;;;;5.28;2.63;;;15.10;99.90;;;;;;5046136;28;20037;-65
2022/07/02 00:20:06;;;;;;;7.60;2.70;;;15.10;99.90;;;;;;5045832;28;20053;-64
2022/07/02 00:22:32;;;;;;;4.28;2.60;;;15.00;99.90;;;;;;5046554;28;20057;-64
2022/07/02 00:24:58;;;;;;;4.65;2.85;;;15.00;99.90;;;;;;5045966;28;20080;-64
2022/07/02 00:27:27;;;;;;;3.72;2.60;;;14.90;99.90;;;;;;5029146;28;20053;-64
2022/07/02 00:30:03;;;;;;;3.88;3.05;;;14.90;99.90;;;;;;5047202;28;20425;-64
2022/07/02 00:32:32;;;;;;;4.47;2.67;;;14.80;99.90;;;;;;5047320;28;20121;-64
2022/07/02 00:35:02;;;;;;;5.32;2.78;;;14.70;99.90;;;;;;5045180;28;20057;-64
2022/07/02 00:37:28;;;;;;;6.35;3.03;;;14.80;99.90;;;;;;5046887;28;20053;-64
2022/07/02 00:39:55;;;;;;;4.65;2.55;;;14.80;99.90;;;;;;5047539;28;20317;-65
2022/07/02 00:42:23;;;;;;;8.10;3.00;;;14.70;99.90;;;;;;5041882;28;20063;-64
2022/07/02 00:44:50;;;;;;;5.07;2.80;;;14.70;99.90;;;;;;5046294;28;20072;-64
2022/07/02 00:47:19;;;;;;;7.45;3.20;;;14.60;99.90;;;;;;5046260;28;20057;-64
2022/07/02 00:49:46;;;;;;;6.25;2.75;;;14.60;99.90;;;;;;5046172;28;20057;-64
2022/07/02 00:52:12;;;;;;;5.78;2.88;;;14.60;99.90;;;;;;5046778;28;20068;-64
2022/07/02 00:54:41;;;;;;;6.88;2.85;;;14.50;99.90;;;;;;5045927;28;20053;-64
2022/07/02 00:57:07;;;;;;;4.45;2.92;;;14.40;99.90;;;;;;5044716;28;20562;-64
2022/07/02 00:59:33;;;;;;;5.40;3.15;;;14.40;99.90;;;;;;5046005;28;20041;-64
2022/07/02 01:02:00;;;;;;;4.55;2.90;;;14.40;99.90;;;;;;5046259;28;20065;-64
2022/07/02 01:04:30;;;;;;;5.78;3.13;;;14.30;99.90;;;;;;5045730;28;20053;-64
2022/07/02 01:07:08;;;;;;;8.27;3.65;;;14.30;99.90;;;;;;5046961;28;20057;-64
2022/07/02 01:12:24;;;;;;;5.32;3.25;;;14.30;99.90;;;;;;5039536;28;20056;-64
2022/07/02 01:14:51;;;;;;;6.13;3.15;;;14.30;99.90;;;;;;5046051;28;20083;-64
2022/07/02 01:17:17;;;;;;;6.43;3.00;;;14.40;99.90;;;;;;5039767;28;20064;-64
2022/07/02 01:19:43;;;;;;;9.80;3.30;;;14.40;99.90;;;;;;5043430;28;20049;-65
2022/07/02 01:22:16;;;;;;;5.85;3.00;;;14.50;99.90;;;;;;5044811;28;20403;-64
2022/07/02 01:24:44;;;;;;;6.38;3.13;;;14.40;99.90;;;;;;5042418;28;20402;-64
2022/07/02 01:27:10;;;;;;;6.55;3.13;;;14.40;99.90;;;;;;5046138;28;20049;-64
2022/07/02 01:29:35;;;;;;;7.35;3.38;;;14.40;99.90;;;;;;5045791;28;20092;-64
2022/07/02 01:32:03;;;;;;;8.32;3.33;;;14.50;99.90;;;;;;5045491;28;20108;-64
2022/07/02 01:34:34;;;;;;;6.25;3.25;;;14.40;99.90;;;;;;5045642;28;20066;-64
2022/07/02 01:36:59;;;;;;;9.20;3.15;;;14.40;99.90;;;;;;5041535;28;20073;-64
2022/07/02 01:39:25;;;;;;;6.45;3.25;;;14.50;99.90;;;;;;5045210;28;20045;-64
2022/07/02 01:41:52;;;;;;;8.80;3.03;;;14.40;99.90;;;;;;5041522;28;20050;-64
2022/07/02 01:44:17;;;;;;;6.40;3.60;;;14.40;99.90;;;;;;5044585;28;20490;-64
2022/07/02 01:46:44;;;;;;;5.07;3.45;;;14.30;99.90;;;;;;5040906;28;20071;-64
2022/07/02 01:49:10;;;;;;;5.85;3.40;;;14.30;99.90;;;;;;5046533;28;20045;-64
2022/07/02 01:51:36;;;;;;;6.53;3.42;;;14.20;99.90;;;;;;5045556;28;20056;-64
2022/07/02 01:54:03;;;;;;;8.23;3.67;;;14.30;99.90;;;;;;5044875;28;20042;-64
2022/07/02 01:56:34;;;;;;;6.68;3.75;;;14.30;99.90;;;;;;5046040;28;20045;-64
2022/07/02 01:59:01;;;;;;;8.73;4.10;;;14.30;99.90;;;;;;5046884;28;20042;-64
2022/07/02 02:01:26;;;;;;;7.10;3.25;;;14.30;99.90;;;;;;5045328;28;20484;-64
2022/07/02 02:03:52;;;;;;;6.30;3.67;;;14.40;99.90;;;;;;5044726;28;20045;-64
2022/07/02 02:06:18;;;;;;;8.02;3.97;;;14.30;99.90;;;;;;5044493;28;20053;-64
2022/07/02 02:08:44;;;;;;;6.63;4.10;;;14.30;99.90;;;;;;5044536;28;20041;-64
2022/07/02 02:11:10;;;;;;;6.65;4.03;;;14.20;99.90;;;;;;5045627;28;20049;-64
2022/07/02 02:13:36;;;;;;;6.93;3.85;;;14.30;99.90;;;;;;5042022;28;20069;-64
2022/07/02 02:16:01;;;;;;;8.73;3.60;;;14.30;99.90;;;;;;5043869;28;20049;-64
2022/07/02 02:18:27;;;;;;;6.63;3.40;;;14.30;99.90;;;;;;5044538;28;20105;-64
2022/07/02 02:20:53;;;;;;;6.65;3.30;;;14.30;99.90;;;;;;5043842;28;20065;-64
2022/07/02 02:23:18;;;;;;;5.68;3.97;;;14.30;99.90;;;;;;5044075;28;20081;-64
2022/07/02 02:25:44;;;;;;;6.20;3.70;;;14.20;99.90;;;;;;5043782;28;20093;-64
2022/07/02 02:28:10;;;;;;;11.43;4.97;;;14.20;99.90;;;;;;5044055;28;20049;-64
2022/07/02 02:30:35;;;;;;;7.32;4.53;;;14.10;99.90;;;;;;5045602;28;20103;-64
2022/07/02 02:33:01;;;;;;;5.57;3.97;;;14.00;99.90;;;;;;5044092;28;20056;-64
2022/07/02 02:35:27;;;;;;;7.97;4.38;;;14.10;99.90;;;;;;5045791;28;20069;-64
2022/07/02 02:37:53;;;;;;;7.25;4.57;;;14.00;99.90;;;;;;5046225;28;20071;-64
2022/07/02 02:40:19;;;;;;;6.43;4.50;;;14.00;99.90;;;;;;5041403;28;20046;-64
2022/07/02 02:42:44;;;;;;;12.68;5.07;;;13.90;99.90;;;;;;5046251;28;20041;-64
2022/07/02 02:45:10;;;;;;;8.77;4.95;;;13.90;99.90;;;;;;5043012;28;20055;-64
2022/07/02 02:47:36;;;;;;;8.65;5.25;;;13.90;99.90;;;;;;5043913;28;20133;-64
2022/07/02 02:50:03;;;;;;;5.60;4.80;;;13.90;99.90;;;;;;5041091;28;20033;-64
2022/07/02 02:52:29;;;;;;;8.38;5.97;;;14.00;99.90;;;;;;5027684;28;20087;-65
2022/07/02 02:54:54;;;;;;;9.20;5.82;;;13.90;99.90;;;;;;5044123;28;20049;-64
2022/07/02 02:57:20;;;;;;;8.38;5.97;;;13.90;99.90;;;;;;5044629;28;20048;-64
2022/07/02 02:59:46;;;;;;;9.77;5.40;;;13.80;99.90;;;;;;5042197;28;20041;-64
2022/07/02 03:02:11;;;;;;;6.97;5.40;;;13.80;99.90;;;;;;5043669;28;20057;-63
2022/07/02 03:04:37;;;;;;;6.65;5.65;;;13.80;99.90;;;;;;5043776;28;20179;-63
2022/07/02 03:07:03;;;;;;;9.73;6.63;;;13.90;99.90;;;;;;5044629;28;20126;-63
2022/07/02 03:09:29;;;;;;;7.55;6.00;;;13.80;99.90;;;;;;5041017;28;20041;-63
2022/07/02 03:11:54;;;;;;;10.15;6.30;;;13.70;99.90;;;;;;5043559;28;20074;-63
2022/07/02 03:14:20;;;;;;;8.10;6.15;;;13.70;99.90;;;;;;5043555;28;20048;-63
2022/07/02 03:16:46;;;;;;;7.75;6.28;;;13.90;99.90;;;;;;5041564;28;20049;-63
2022/07/02 03:19:11;;;;;;;8.50;7.00;;;13.90;99.90;;;;;;5042823;28;20494;-63
2022/07/02 03:21:37;;;;;;;10.20;6.90;;;13.80;99.90;;;;;;5043123;28;20072;-63
2022/07/02 03:24:03;;;;;;;9.38;6.30;;;13.80;99.90;;;;;;5042645;28;20056;-63
2022/07/02 03:26:28;;;;;;;11.40;6.45;;;13.80;99.90;;;;;;5043705;28;20076;-63
2022/07/02 03:28:54;;;;;;;10.88;5.75;;;13.80;99.90;;;;;;5042385;28;20068;-63
2022/07/02 03:31:20;;;;;;;7.05;6.38;;;13.90;99.90;;;;;;5042756;28;20098;-63
2022/07/02 03:33:45;;;;;;;8.80;6.22;;;13.80;99.90;;;;;;5044512;28;20037;-63
2022/07/02 03:36:11;;;;;;;7.93;6.28;;;13.80;99.90;;;;;;5039683;28;20560;-63
2022/07/02 03:38:38;;;;;;;8.60;5.90;;;13.80;99.90;;;;;;5043165;28;20045;-63
2022/07/02 03:41:06;;;;;;;6.78;6.07;;;13.90;99.90;;;;;;5039632;28;20045;-63
2022/07/02 03:43:32;;;;;;;11.75;6.22;;;13.80;99.90;;;;;;5043171;28;20049;-63
2022/07/02 03:45:58;;;;;;;9.30;6.30;;;13.80;99.90;;;;;;5026976;28;20061;-63
2022/07/02 03:48:24;;;;;;;8.90;6.72;;;13.80;99.90;;;;;;5040533;28;20047;-63
2022/07/02 03:50:50;;;;;;;7.90;5.80;;;13.80;99.90;;;;;;5045319;28;20053;-63
2022/07/02 03:53:15;;;;;;;9.70;6.78;;;14.00;99.90;;;;;;5043804;28;20056;-63
2022/07/02 03:55:41;;;;;;;7.32;5.53;;;14.00;99.90;;;;;;5034158;28;20046;-63
2022/07/02 03:58:07;;;;;;;7.40;5.70;;;14.10;99.90;;;;;;5043221;28;20103;-63
2022/07/02 04:00:32;;;;;;;11.85;6.30;;;14.20;99.90;;;;;;5044995;28;20045;-63
2022/07/02 04:02:58;;;;;;;6.80;5.63;;;14.30;99.90;;;;;;5040992;28;20048;-63
2022/07/02 04:05:24;;;;;;;9.40;6.57;;;14.30;99.90;;;;;;5043936;28;20084;-63
2022/07/02 04:07:50;;;;;;;8.40;6.10;;;14.30;99.90;;;;;;5044163;28;20060;-63
2022/07/02 04:10:16;;;;;;;8.38;6.45;;;14.30;99.90;;;;;;5039581;28;20688;-63
2022/07/02 04:12:42;;;;;;;8.75;6.35;;;14.30;99.90;;;;;;5042013;28;20041;-63
2022/07/02 04:15:08;;;;;;;8.98;6.20;;;14.40;99.90;;;;;;5041212;28;20060;-63
2022/07/02 04:17:34;;;;;;;11.40;6.72;;;14.50;99.90;;;;;;5038258;28;20045;-63
2022/07/02 04:19:59;;;;;;;12.18;6.28;;;14.40;99.90;;;;;;5043383;28;20045;-63
2022/07/02 04:22:25;;;;;;;9.27;6.35;;;14.50;99.90;;;;;;5043618;28;20064;-63
2022/07/02 04:24:51;;;;;;;10.23;7.07;;;14.40;99.90;;;;;;5043022;28;20054;-63
2022/07/02 04:27:18;;;;;;;8.20;7.35;;;14.30;99.90;;;;;;5043557;28;20057;-63
2022/07/02 04:29:44;;;;;;;9.48;6.75;;;14.20;99.90;;;;;;5043820;28;20064;-63
2022/07/02 04:32:09;;;;;;;8.18;6.53;;;14.20;99.90;;;;;;5042482;28;20081;-63
2022/07/02 04:34:35;;;;;;;10.80;7.22;;;14.30;99.90;;;;;;5042183;28;20041;-63
2022/07/02 04:37:01;;;;;;;11.13;6.60;;;14.10;99.90;;;;;;5043366;28;20532;-63
2022/07/02 04:39:26;;;;;;;10.07;7.25;;;14.20;99.90;;;;;;5043331;28;20061;-63
2022/07/02 04:41:52;;;;;;;8.43;6.95;;;14.10;99.90;;;;;;5044308;28;20045;-64
2022/07/02 04:44:18;;;;;;;11.18;6.85;;;14.20;99.90;;;;;;5042014;28;20117;-65
2022/07/02 04:46:44;;;;;;;12.68;7.85;;;14.20;99.90;;;;;;5042533;28;20057;-66
2022/07/02 04:49:09;;;;;;;8.10;7.30;;;14.20;99.90;;;;;;5042084;28;20529;-68
2022/07/02 04:51:35;;;;;;;9.38;7.07;;;14.20;99.90;;;;;;5039370;28;20052;-65
2022/07/02 04:54:01;;;;;;;10.80;8.35;;;14.30;99.90;;;;;;5043887;28;20049;-65
2022/07/02 04:56:27;;;;;;;8.50;6.63;;;14.30;99.90;;;;;;5043760;28;20110;-65
2022/07/02 04:58:54;;;;;;;9.07;7.38;;;14.40;99.90;;;;;;5047023;28;20041;-65
2022/07/02 05:01:21;;;;;;;11.38;7.68;;;14.40;99.90;;;;;;5048189;28;20080;-65
2022/07/02 05:03:46;;;;;;;10.82;7.97;;;14.40;99.90;;;;;;5043513;28;20103;-65
2022/07/02 05:06:12;;;;;;;12.90;8.23;;;14.40;99.90;;;;;;5039780;28;20130;-65
2022/07/02 05:08:38;;;;;;;8.57;7.43;;;14.50;99.90;;;;;;5047477;28;20041;-65
2022/07/02 05:11:03;;;;;;;11.98;7.30;;;14.50;99.90;;;;;;5040844;28;20053;-65
2022/07/02 05:13:29;;;;;;;9.70;7.50;;;14.60;99.90;;;;;;5042885;28;20041;-65
2022/07/02 05:15:55;;;;;;;10.70;7.40;;;14.60;99.90;;;;;;5043141;28;20490;-65
2022/07/02 05:18:23;;;;;;;11.93;7.63;;;14.50;99.90;;;;;;5043891;28;20087;-64
2022/07/02 05:20:49;;;;;;;9.32;6.90;;;14.60;99.90;;;;;;5042681;28;20445;-64
2022/07/02 05:23:14;;;;;;;8.73;7.53;;;14.70;99.90;;;;;;5046278;28;20077;-64
2022/07/02 05:25:40;;;;;;;8.18;6.55;;;14.70;99.90;;;;;;5043341;28;20084;-64
2022/07/02 05:28:06;;;;;;;10.02;7.10;;;14.80;99.90;;;;;;5042282;28;20128;-64
2022/07/02 05:30:32;;;;;;;9.48;6.00;;;14.90;99.90;;;;;;5045434;28;20072;-64
2022/07/02 05:32:57;;;;;;;8.32;6.25;;;14.80;99.90;;;;;;5044918;28;20048;-62
2022/07/02 05:35:23;;;;;;;8.02;6.03;;;15.00;99.90;;;;;;5041318;28;20030;-63
2022/07/02 05:37:49;;;;;;;10.55;6.30;;;15.00;99.90;;;;;;5045062;28;20064;-63
2022/07/02 05:40:14;;;;;;;10.60;6.35;;;15.00;99.90;;;;;;5041773;28;20093;-64
2022/07/02 05:42:40;;;;;;;8.32;6.30;;;15.10;99.90;;;;;;5043875;28;20045;-66
2022/07/02 05:45:06;;;;;;;8.60;5.97;;;15.00;99.90;;;;;;5042816;28;20069;-66
2022/07/02 05:47:32;;;;;;;8.52;6.10;;;15.10;99.90;;;;;;5046473;28;20033;-65
2022/07/02 05:49:57;;;;;;;9.63;5.95;;;15.10;99.90;;;;;;5045016;28;20045;-66
2022/07/02 05:52:23;;;;;;;6.97;5.95;;;15.10;99.90;;;;;;5045880;28;20049;-63
2022/07/02 05:54:48;;;;;;;15.10;5.55;;;15.20;99.90;;;;;;5045681;28;20117;-64
2022/07/02 05:57:14;;;;;;;7.88;4.75;;;15.30;99.90;;;;;;5046582;28;20140;-65
2022/07/02 05:59:40;;;;;;;7.85;5.30;;;15.40;99.90;;;;;;5040098;28;20058;-63
2022/07/02 06:02:06;;;;;;;10.13;6.00;;;15.40;99.90;;;;;;5043136;28;20076;-63
2022/07/02 06:04:32;;;;;;;8.10;5.88;;;15.40;99.90;;;;;;5044529;28;20045;-63
2022/07/02 06:09:44;;;;;;;6.30;4.75;;;15.60;99.90;;;;;;5042735;28;20052;-63
2022/07/02 06:12:10;;;;;;;9.75;5.18;;;15.60;99.90;;;;;;5041766;28;20136;-64
2022/07/02 06:14:35;;;;;;;9.32;5.25;;;15.60;99.90;;;;;;5046216;28;20053;-64
2022/07/02 06:17:01;;;;;;;7.50;4.85;;;15.70;99.90;;;;;;5046253;28;20037;-65
2022/07/02 06:19:27;;;;;;;10.25;4.78;;;15.70;99.90;;;;;;5042901;28;20084;-64
2022/07/02 06:21:53;;;;;;;9.40;5.35;;;15.90;99.90;;;;;;5042943;28;20064;-66
2022/07/02 06:24:18;;;;;;;8.75;4.72;;;16.00;99.90;;;;;;5043419;28;20088;-67
2022/07/02 06:26:44;;;;;;;6.60;3.95;;;16.10;99.90;;;;;;5043185;28;20115;-66
2022/07/02 06:29:10;;;;;;;7.88;4.38;;;16.10;99.90;;;;;;5042450;28;20045;-66
2022/07/02 06:31:36;;;;;;;7.65;4.80;;;16.30;99.90;;;;;;5042390;28;20038;-66
2022/07/02 06:34:05;;;;;;;7.05;4.65;;;16.30;99.90;;;;;;5040223;28;20092;-67
2022/07/02 06:36:31;;;;;;;10.05;4.30;;;16.50;99.90;;;;;;5044756;28;20398;-66
2022/07/02 06:38:56;;;;;;;7.45;4.22;;;16.40;99.90;;;;;;5043182;28;20061;-67
2022/07/02 06:44:07;;;;;;;6.40;3.67;;;16.70;99.90;;;;;;5041848;28;20056;-66
2022/07/02 06:46:34;;;;;;;7.18;3.35;;;16.80;99.90;;;;;;5026473;28;20048;-66
2022/07/02 06:49:00;;;;;;;5.68;3.10;;;16.80;99.90;;;;;;5044898;28;20112;-65
2022/07/02 06:51:26;;;;;;;7.68;3.22;;;16.80;99.90;;;;;;5043104;28;20101;-67
2022/07/02 06:53:55;;;;;;;5.15;2.92;;;16.70;99.90;;;;;;5028382;28;20041;-66
2022/07/02 06:56:20;;;;;;;4.80;2.47;;;16.70;99.90;;;;;;5030285;28;20084;-66
2022/07/02 06:58:46;;;;;;;4.95;2.65;;;16.80;99.90;;;;;;5035777;28;20054;-65
2022/07/02 07:01:12;;;;;;;5.10;2.28;;;17.00;99.90;;;;;;5026947;28;20132;-66
2022/07/02 07:03:37;;;;;;;23.35;2.95;;;17.00;99.90;;;;;;5026988;28;20108;-66
2022/07/02 07:06:03;;;;;;;6.05;2.72;;;16.90;99.90;;;;;;5026749;28;20084;-66
2022/07/02 07:08:29;;;;;;;6.78;2.22;;;17.00;99.90;;;;;;5028285;28;20052;-65
2022/07/02 07:10:54;;;;;;;5.32;2.78;;;17.30;99.90;;;;;;5025599;28;20054;-64
2022/07/02 07:13:20;;;;;;;9.27;2.63;;;17.30;99.90;;;;;;5025979;28;20033;-67
2022/07/02 07:15:46;;;;;;;4.85;1.90;;;17.40;99.90;;;;;;5026366;28;20046;-66
2022/07/02 07:18:12;;;;;;;6.57;2.55;;;17.40;99.90;;;;;;5028761;28;20133;-66
2022/07/02 07:20:38;;;;;;;2.65;2.10;;;17.40;99.90;;;;;;5024258;28;20060;-66
2022/07/02 07:23:04;;;;;;;3.58;2.05;;;17.40;99.90;;;;;;5025128;28;20314;-67
2022/07/02 07:25:30;;;;;;;4.15;2.60;;;17.50;99.90;;;;;;5027676;28;20636;-64
2022/07/02 07:27:56;;;;;;;5.40;1.92;;;17.70;99.90;;;;;;5043960;28;20053;-65
2022/07/02 07:30:21;;;;;;;2.58;1.85;;;17.60;99.90;;;;;;5037510;28;20077;-64
2022/07/02 07:32:47;;;;;;;5.30;2.10;;;17.60;99.90;;;;;;5039931;28;20524;-61
2022/07/02 07:35:13;;;;;;;3.28;1.75;;;17.60;99.90;;;;;;5043506;28;20109;-63
2022/07/02 07:37:38;;;;;;;3.72;1.77;;;17.70;99.90;;;;;;5042439;28;20080;-63
2022/07/02 07:40:05;;;;;;;6.15;1.90;;;17.70;99.90;;;;;;5043045;28;20076;-63
2022/07/02 07:42:31;;;;;;;3.80;1.70;;;17.80;99.90;;;;;;5043233;28;20044;-63
2022/07/02 07:44:57;;;;;;;2.70;1.45;;;17.90;99.90;;;;;;5042373;28;20033;-63
2022/07/02 07:47:23;;;;;;;6.18;1.42;;;18.00;99.90;;;;;;5039366;28;20038;-63
2022/07/02 07:49:48;;;;;;;8.55;1.80;;;18.00;99.90;;;;;;5042286;28;20060;-63
2022/07/02 07:52:14;;;;;;;5.47;1.77;;;18.00;99.90;;;;;;5042493;28;20382;-63
2022/07/02 07:54:40;;;;;;;5.05;1.40;;;17.90;99.90;;;;;;5038048;28;20073;-65
2022/07/02 07:57:06;;;;;;;2.75;1.20;;;17.90;99.90;;;;;;5041169;28;20033;-63
2022/07/02 07:59:32;;;;;;;2.95;1.30;;;18.00;99.90;;;;;;5025241;28;20038;-63
2022/07/02 08:01:58;;;;;;;2.70;1.98;;;18.10;99.90;;;;;;5042394;28;20052;-62
2022/07/02 08:04:24;;;;;;;3.58;1.40;;;18.20;99.90;;;;;;5044611;28;20033;-63
2022/07/02 08:06:49;;;;;;;2.65;1.00;;;18.30;99.90;;;;;;5044221;28;20053;-62
2022/07/02 08:09:15;;;;;;;3.38;1.63;;;18.30;99.90;;;;;;5029129;28;20131;-63
2022/07/02 08:11:41;;;;;;;1.83;1.20;;;18.40;99.90;;;;;;5040389;28;20045;-61
2022/07/02 08:14:07;;;;;;;3.97;1.42;;;18.50;99.90;;;;;;5025919;28;20053;-61
2022/07/02 08:16:33;;;;;;;2.75;1.20;;;18.50;99.90;;;;;;5042124;28;20136;-60
2022/07/02 08:18:58;;;;;;;3.15;0.90;;;18.60;99.90;;;;;;5033253;28;20045;-60
2022/07/02 08:21:24;;;;;;;4.53;1.17;;;18.70;99.90;;;;;;5027448;28;20049;-60
2022/07/02 08:23:50;;;;;;;4.57;1.30;;;18.70;99.90;;;;;;5029769;28;20053;-59
2022/07/02 08:26:15;;;;;;;2.75;1.42;;;18.70;99.90;;;;;;5025086;28;20045;-60
2022/07/02 08:28:41;;;;;;;1.85;1.20;;;18.80;99.90;;;;;;5028879;28;20046;-60
2022/07/02 08:31:07;;;;;;;2.45;1.23;;;18.90;99.90;;;;;;5043813;28;20056;-61
2022/07/02 08:33:33;;;;;;;3.30;0.90;;;18.90;99.90;;;;;;5045823;28;20064;-60
2022/07/02 08:35:59;;;;;;;3.20;1.10;;;18.90;99.90;;;;;;5046359;28;20033;-63
2022/07/02 08:38:25;;;;;;;3.30;1.10;;;18.90;99.90;;;;;;5045806;28;20073;-60
2022/07/02 08:40:51;;;;;;;2.80;1.00;;;19.00;99.90;;;;;;5046940;28;20045;-60
2022/07/02 08:43:17;;;;;;;3.22;1.10;;;19.10;99.90;;;;;;5047321;28;20054;-61
2022/07/02 08:45:44;;;;;;;3.15;0.93;;;19.20;99.90;;;;;;5045110;28;20052;-61
2022/07/02 08:48:11;;;;;;;4.65;1.42;;;19.30;99.90;;;;;;5044830;28;20049;-60
2022/07/02 08:50:38;;;;;;;3.72;1.10;;;19.30;99.90;;;;;;5046433;28;20041;-60
2022/07/02 08:53:06;;;;;;;1.80;0.93;;;19.30;99.90;;;;;;5045308;28;20053;-61
2022/07/02 08:55:34;;;;;;;5.15;1.13;;;19.40;99.90;;;;;;5046585;28;20116;-60
2022/07/02 08:58:00;;;;;;;2.65;1.20;;;19.50;99.90;;;;;;5046106;28;20055;-61
2022/07/02 09:00:27;;;;;;;4.28;1.20;;;19.40;99.90;;;;;;5045049;28;20136;-62
2022/07/02 09:02:54;;;;;;;1.92;1.00;;;19.40;99.90;;;;;;5045884;28;20033;-60
2022/07/02 09:05:25;;;;;;;7.45;1.80;;;19.50;99.90;;;;;;5046392;28;20042;-61
2022/07/02 09:07:51;;;;;;;4.03;1.42;;;19.50;99.90;;;;;;5046354;28;20406;-61
2022/07/02 09:10:20;;;;;;;3.13;0.95;;;19.60;99.90;;;;;;5046088;28;20143;-61
2022/07/02 09:12:47;;;;;;;2.75;1.08;;;19.60;99.90;;;;;;5046305;28;20045;-61
2022/07/02 09:15:14;;;;;;;1.55;0.93;;;19.60;99.90;;;;;;5044696;28;20053;-61
2022/07/02 09:17:44;;;;;;;3.40;1.00;;;19.80;99.90;;;;;;5041866;28;20046;-62
2022/07/02 09:20:11;;;;;;;2.17;1.05;;;19.90;99.90;;;;;;5044062;28;20084;-63
2022/07/02 09:22:43;;;;;;;2.47;1.25;;;19.80;99.90;;;;;;5037875;28;20076;-61
2022/07/02 09:25:15;;;;;;;1.65;0.90;;;19.90;99.90;;;;;;5045619;28;20071;-61
2022/07/02 09:27:43;;;;;;;3.65;0.85;;;19.90;99.90;;;;;;5046892;28;20038;-61
2022/07/02 09:30:10;;;;;;;1.50;0.80;;;20.20;99.90;;;;;;5046287;28;20132;-60
2022/07/02 09:32:41;;;;;;;2.80;0.77;;;20.00;99.90;;;;;;5046523;28;20045;-61
2022/07/02 09:35:15;;;;;;;1.75;1.00;;;20.00;99.90;;;;;;5045678;28;20046;-61
2022/07/02 09:37:41;;;;;;;2.75;0.95;;;20.00;99.90;;;;;;5046214;28;20120;-61
2022/07/02 09:40:07;;;;;;;2.42;0.85;;;20.20;99.90;;;;;;5044515;28;20068;-61
2022/07/02 09:42:34;;;;;;;2.20;0.95;;;20.20;99.90;;;;;;5043034;28;20794;-60
2022/07/02 09:45:02;;;;;;;2.85;0.85;;;20.20;99.90;;;;;;5044643;28;20041;-61
2022/07/02 09:47:38;;;;;;;2.50;0.80;;;20.30;99.90;;;;;;5044138;28;20052;-61
2022/07/02 09:50:07;;;;;;;4.72;1.00;;;20.40;99.90;;;;;;5044298;28;20050;-61
2022/07/02 09:52:33;;;;;;;2.30;0.87;;;20.30;99.90;;;;;;5043926;28;20103;-61
2022/07/02 09:55:00;;;;;;;3.70;0.98;;;20.30;99.90;;;;;;5045912;28;20056;-62
2022/07/02 09:57:29;;;;;;;3.88;1.25;;;20.30;99.90;;;;;;5042643;28;20042;-61
2022/07/02 10:00:06;;;;;;;4.57;0.90;;;20.20;99.90;;;;;;5045084;28;20233;-63
2022/07/02 10:02:35;;;;;;;2.92;0.88;;;20.30;99.90;;;;;;5043312;28;20045;-61
2022/07/02 10:05:05;;;;;;;4.22;1.10;;;20.50;99.90;;;;;;5043771;28;20100;-61
2022/07/02 10:07:31;;;;;;;3.35;1.02;;;20.50;99.90;;;;;;5031280;28;20049;-61
2022/07/02 10:10:01;;;;;;;3.67;1.10;;;20.50;99.90;;;;;;5045072;28;20042;-61
2022/07/02 10:12:28;;;;;;;2.50;0.80;;;20.50;99.90;;;;;;5044471;28;20120;-61
2022/07/02 10:14:56;;;;;;;3.58;1.13;;;20.70;99.90;;;;;;5045357;28;20524;-61
2022/07/02 10:17:24;;;;;;;3.33;1.30;;;20.60;99.90;;;;;;5045045;28;20632;-61
2022/07/02 10:19:51;;;;;;;4.15;1.10;;;20.60;99.90;;;;;;5040018;28;20041;-61
2022/07/02 10:22:18;;;;;;;2.75;1.00;;;20.70;99.90;;;;;;5045058;28;20049;-62
2022/07/02 10:24:45;;;;;;;6.18;1.40;;;20.70;99.90;;;;;;5043700;28;20056;-62
2022/07/02 10:27:12;;;;;;;3.28;1.10;;;20.70;99.90;;;;;;5042893;28;20048;-61
2022/07/02 10:29:40;;;;;;;2.83;0.82;;;20.80;99.90;;;;;;5043342;28;20076;-63
2022/07/02 10:32:40;;;;;;;5.03;1.38;;;21.00;99.90;;;;;;5044575;28;20063;-61
2022/07/02 10:35:09;;;;;;;;;;;20.90;99.90;;;;;;5043681;28;20075;-61
2022/07/02 10:37:42;;;;;;;1.27;0.93;;;20.70;99.90;;;;;;5042995;28;19925;-62
2022/07/02 10:40:09;;;;;;;3.97;1.20;;;20.80;99.90;;;;;;5043043;28;20765;-61
2022/07/02 10:42:41;;;;;;;2.10;1.08;;;21.00;99.90;;;;;;5042680;28;20523;-61
2022/07/02 10:45:18;;;;;;;2.97;1.50;;;21.20;99.90;;;;;;5043226;28;20049;-62
2022/07/02 10:47:54;;;;;;;5.75;1.35;;;21.40;99.90;;;;;;5043395;28;20049;-62
2022/07/02 10:50:44;;;;;;;4.78;1.63;;;21.50;99.90;;;;;;5043463;28;20541;-62
2022/07/02 10:53:21;;;;;;;2.13;1.15;;;21.30;99.90;;;;;;5035228;28;20045;-64
2022/07/02 10:55:58;;;;;;;3.70;1.20;;;21.40;99.90;;;;;;5043582;28;20053;-62
2022/07/02 10:58:32;;;;;;;3.92;1.13;;;21.30;99.90;;;;;;5041634;28;20044;-62
2022/07/02 11:01:16;;;;;;;9.95;1.67;;;21.20;99.90;;;;;;5039772;28;20049;-62
2022/07/02 11:04:00;;;;;;;3.63;1.02;;;21.00;99.90;;;;;;5043738;28;20041;-62
2022/07/02 11:06:33;;;;;;;3.63;1.35;;;21.10;99.90;;;;;;5044190;28;20037;-62
2022/07/02 11:09:06;;;;;;;3.60;1.20;;;21.20;99.90;;;;;;5044179;28;20057;-62
2022/07/02 11:11:39;;;;;;;2.97;1.23;;;21.20;99.90;;;;;;5044500;28;20489;-62
2022/07/02 11:14:17;;;;;;;3.42;1.27;;;21.20;99.90;;;;;;5040648;28;20041;-62
2022/07/02 11:16:46;;;;;;;4.85;1.23;;;21.40;99.90;;;;;;5041738;28;20098;-62
2022/07/02 11:19:22;;;;;;;3.47;1.13;;;21.60;99.90;;;;;;5037020;28;20052;-63
2022/07/02 11:21:49;;;;;;;1.52;0.90;;;21.60;99.90;;;;;;5061558;28;20045;-62
2022/07/02 11:24:18;;;;;;;3.53;1.08;;;21.70;99.90;;;;;;5063162;28;20044;-62
2022/07/02 11:26:45;;;;;;;2.90;1.00;;;21.40;99.90;;;;;;5063390;28;20060;-63
2022/07/02 11:29:12;;;;;;;2.17;0.88;;;21.60;99.90;;;;;;5064723;28;20097;-63
2022/07/02 11:31:40;;;;;;;2.47;1.05;;;21.40;99.90;;;;;;5064589;28;20037;-63
2022/07/02 11:34:06;;;;;;;4.90;1.20;;;21.20;99.90;;;;;;5059966;28;20033;-62
2022/07/02 11:36:32;;;;;;;3.67;1.13;;;21.10;99.90;;;;;;5063766;28;20045;-62
2022/07/02 11:38:58;;;;;;;3.63;1.30;;;21.20;99.90;;;;;;5064365;28;20124;-63
2022/07/02 11:41:26;;;;;;;2.65;1.08;;;21.30;99.90;;;;;;5060704;28;20045;-62
2022/07/02 11:43:57;;;;;;;3.00;1.10;;;21.50;99.90;;;;;;5064641;28;20045;-62
2022/07/02 11:46:28;;;;;;;3.72;1.55;;;21.60;99.90;;;;;;5061829;28;20036;-63
2022/07/02 11:48:56;;;;;;;1.83;0.88;;;21.50;99.90;;;;;;5061402;28;20052;-62
2022/07/02 11:51:22;;;;;;;3.92;1.40;;;21.70;99.90;;;;;;5060994;28;20072;-63
2022/07/02 11:53:59;;;;;;;1.90;1.00;;;21.90;99.90;;;;;;5060916;28;20245;-63
2022/07/02 11:56:25;;;;;;;5.32;1.20;;;21.90;99.90;;;;;;5063719;28;20055;-63
2022/07/02 11:58:51;;;;;;;3.50;1.15;;;22.00;99.90;;;;;;5063069;28;20072;-63
2022/07/02 12:01:24;;;;;;;2.65;1.10;;;21.80;99.90;;;;;;5059273;28;20099;-63
2022/07/02 12:03:51;;;;;;;2.80;1.02;;;21.70;99.90;;;;;;5063319;28;20119;-63
2022/07/02 12:06:18;;;;;;;2.88;1.08;;;21.80;99.90;;;;;;5062995;28;20036;-63
2022/07/02 12:08:44;;;;;;;3.35;1.48;;;22.00;99.90;;;;;;5067621;28;20094;-63
2022/07/02 12:11:17;;;;;;;2.40;1.00;;;22.00;99.90;;;;;;5068659;28;20045;-63
2022/07/02 12:13:44;;;;;;;3.17;1.00;;;21.90;99.90;;;;;;5066004;28;20045;-63
2022/07/02 12:16:15;;;;;;;2.47;1.08;;;22.00;99.90;;;;;;5066943;28;20080;-62
2022/07/02 12:18:41;;;;;;;2.35;1.15;;;22.20;99.90;;;;;;5067497;28;20048;-62
2022/07/02 12:21:14;;;;;;;3.25;1.30;;;22.10;99.90;;;;;;5038336;28;20131;-63
2022/07/02 12:23:50;;;;;;;4.10;1.02;;;22.00;99.90;;;;;;5048520;28;20184;-63
2022/07/02 12:26:24;;;;;;;3.05;1.20;;;22.00;99.90;;;;;;5047064;28;20053;-63
2022/07/02 12:31:46;;;;;;;4.50;1.20;;;22.20;99.90;;;;;;5046678;28;20064;-63
2022/07/02 12:34:12;;;;;;;3.28;0.90;;;22.60;99.90;;;;;;5045950;28;20049;-63
2022/07/02 12:36:51;;;;;;;3.05;1.23;;;22.50;99.90;;;;;;5046816;28;20502;-62
2022/07/02 12:39:16;;;;;;;4.17;1.27;;;22.30;99.90;;;;;;5044737;28;20060;-63
2022/07/02 12:41:42;;;;;;;4.13;1.55;;;22.40;99.90;;;;;;5045568;28;20510;-63
2022/07/02 12:44:19;;;;;;;2.13;1.13;;;22.30;99.90;;;;;;5042726;28;20045;-63
2022/07/02 12:46:50;;;;;;;2.50;1.15;;;22.70;99.90;;;;;;5045566;28;20058;-62
2022/07/02 12:49:18;;;;;;;2.47;1.15;;;22.80;99.90;;;;;;5046464;28;20494;-62
2022/07/02 12:51:54;;;;;;;3.85;1.50;;;22.80;99.90;;;;;;5045031;28;20081;-62
2022/07/02 12:54:20;;;;;;;2.90;1.30;;;22.60;99.90;;;;;;5045753;28;20457;-62
2022/07/02 12:56:46;;;;;;;2.17;1.05;;;22.90;99.90;;;;;;5045933;28;20038;-62